Uchoa, Brazil
Current Conditions -  °F | °C
As of 2:00 PM on Saturday 25 Oct 2014 (Local Time) from SBSR Reporting Station
Light Rain Light Rain  
Wind Chill: 72°   Ceiling: 1000
Heat Index: 72°   Visibility: 4mi
Dew Point: 66°   Wind: 2mph
Humidity: 83%   Direction: 90°E
Pressure: 30.06"   Gusts: NA
Location:  20.95°S, 49.17°W
Report Text: SBSR 251600Z 09002KT 7000 -RA BKN010 OVC070 22/19 Q1018
Loading
Personal Weather Stations






























Interactive Weather Map
Tropical Storm Tracking
New forecast layout! Learn more

10-Day Weather Forecast

Advertisements
Track Severe Weather on mobile